sensor_id;sensor_type;location;lat;lon;timestamp;pressure;altitude;pressure_sealevel;temperature;humidity
42001;BME280;27689;48.390;10.856;2023-02-23T00:02:22;95769.00;;;6.56;93.29
42001;BME280;27689;48.390;10.856;2023-02-23T00:05:06;95762.97;;;6.55;92.52
42001;BME280;27689;48.390;10.856;2023-02-23T00:07:51;95763.09;;;6.54;92.41
42001;BME280;27689;48.390;10.856;2023-02-23T00:10:35;95773.25;;;6.57;92.90
42001;BME280;27689;48.390;10.856;2023-02-23T00:13:19;95778.59;;;6.55;95.74
42001;BME280;27689;48.390;10.856;2023-02-23T00:16:05;95769.69;;;6.58;95.03
42001;BME280;27689;48.390;10.856;2023-02-23T00:18:54;95775.09;;;6.66;93.99
42001;BME280;27689;48.390;10.856;2023-02-23T00:21:40;95777.41;;;6.69;93.90
42001;BME280;27689;48.390;10.856;2023-02-23T00:24:24;95773.03;;;6.69;95.02
42001;BME280;27689;48.390;10.856;2023-02-23T00:27:09;95764.41;;;6.69;95.96
42001;BME280;27689;48.390;10.856;2023-02-23T00:29:55;95770.28;;;6.71;96.48
42001;BME280;27689;48.390;10.856;2023-02-23T00:32:39;95772.97;;;6.81;94.81
42001;BME280;27689;48.390;10.856;2023-02-23T00:35:24;95773.22;;;6.87;94.82
42001;BME280;27689;48.390;10.856;2023-02-23T00:38:08;95772.03;;;6.91;95.67
42001;BME280;27689;48.390;10.856;2023-02-23T00:40:52;95775.56;;;6.90;96.76
42001;BME280;27689;48.390;10.856;2023-02-23T00:43:39;95775.19;;;6.95;96.27
42001;BME280;27689;48.390;10.856;2023-02-23T00:46:33;95776.00;;;6.95;95.70
42001;BME280;27689;48.390;10.856;2023-02-23T00:49:19;95771.63;;;6.96;95.31
42001;BME280;27689;48.390;10.856;2023-02-23T00:52:03;95769.97;;;6.95;95.29
42001;BME280;27689;48.390;10.856;2023-02-23T00:54:47;95775.47;;;7.01;95.02
42001;BME280;27689;48.390;10.856;2023-02-23T00:57:32;95776.56;;;6.99;94.92
42001;BME280;27689;48.390;10.856;2023-02-23T01:00:16;95778.19;;;7.00;95.00
42001;BME280;27689;48.390;10.856;2023-02-23T01:03:03;95772.28;;;6.98;95.57
42001;BME280;27689;48.390;10.856;2023-02-23T01:05:46;95782.88;;;6.96;94.94
42001;BME280;27689;48.390;10.856;2023-02-23T01:08:33;95765.84;;;6.92;95.28
42001;BME280;27689;48.390;10.856;2023-02-23T01:11:21;95769.81;;;6.87;96.88
42001;BME280;27689;48.390;10.856;2023-02-23T01:14:06;95773.63;;;6.83;98.03
42001;BME280;27689;48.390;10.856;2023-02-23T01:16:50;95774.16;;;6.77;98.26
42001;BME280;27689;48.390;10.856;2023-02-23T01:19:34;95779.94;;;6.80;98.61
42001;BME280;27689;48.390;10.856;2023-02-23T01:22:18;95783.38;;;6.81;96.87
42001;BME280;27689;48.390;10.856;2023-02-23T01:25:02;95772.81;;;6.82;96.28
42001;BME280;27689;48.390;10.856;2023-02-23T01:27:46;95768.41;;;6.83;96.71
42001;BME280;27689;48.390;10.856;2023-02-23T01:30:30;95774.31;;;6.85;97.15
42001;BME280;27689;48.390;10.856;2023-02-23T01:33:14;95777.63;;;6.87;96.82
42001;BME280;27689;48.390;10.856;2023-02-23T01:35:58;95769.69;;;6.88;96.23
42001;BME280;27689;48.390;10.856;2023-02-23T01:38:42;95771.59;;;6.86;96.35
42001;BME280;27689;48.390;10.856;2023-02-23T01:41:28;95771.03;;;6.83;95.70
42001;BME280;27689;48.390;10.856;2023-02-23T01:47:02;95768.00;;;6.78;96.04
42001;BME280;27689;48.390;10.856;2023-02-23T01:49:46;95761.97;;;6.77;95.52
42001;BME280;27689;48.390;10.856;2023-02-23T01:52:31;95763.19;;;6.73;95.10
42001;BME280;27689;48.390;10.856;2023-02-23T01:55:18;95759.88;;;6.71;95.02
42001;BME280;27689;48.390;10.856;2023-02-23T01:58:10;95751.25;;;6.70;95.18
42001;BME280;27689;48.390;10.856;2023-02-23T02:00:59;95758.94;;;6.72;94.88
42001;BME280;27689;48.390;10.856;2023-02-23T02:03:57;95750.44;;;6.70;94.51
42001;BME280;27689;48.390;10.856;2023-02-23T02:06:43;95753.97;;;6.69;94.66
42001;BME280;27689;48.390;10.856;2023-02-23T02:09:28;95748.94;;;6.67;94.48
42001;BME280;27689;48.390;10.856;2023-02-23T02:12:13;95737.84;;;6.65;94.69
42001;BME280;27689;48.390;10.856;2023-02-23T02:14:58;95736.06;;;6.66;94.58
42001;BME280;27689;48.390;10.856;2023-02-23T02:17:54;95742.22;;;6.65;94.15
42001;BME280;27689;48.390;10.856;2023-02-23T02:21:07;95730.97;;;6.64;94.70
42001;BME280;27689;48.390;10.856;2023-02-23T02:24:12;95738.22;;;6.61;94.73
42001;BME280;27689;48.390;10.856;2023-02-23T02:33:27;95733.97;;;6.60;96.42
42001;BME280;27689;48.390;10.856;2023-02-23T02:43:30;95736.06;;;6.66;98.62
42001;BME280;27689;48.390;10.856;2023-02-23T02:46:12;95739.47;;;6.66;98.06
42001;BME280;27689;48.390;10.856;2023-02-23T02:52:18;95725.06;;;6.62;99.56
42001;BME280;27689;48.390;10.856;2023-02-23T02:55:10;95735.34;;;6.64;99.57
42001;BME280;27689;48.390;10.856;2023-02-23T02:57:57;95731.69;;;6.66;98.73
42001;BME280;27689;48.390;10.856;2023-02-23T03:00:46;95724.53;;;6.68;97.70
42001;BME280;27689;48.390;10.856;2023-02-23T03:03:50;95730.97;;;6.64;97.56
42001;BME280;27689;48.390;10.856;2023-02-23T03:06:58;95730.03;;;6.65;97.24
42001;BME280;27689;48.390;10.856;2023-02-23T03:10:11;95728.25;;;6.66;97.20
42001;BME280;27689;48.390;10.856;2023-02-23T03:13:42;95734.81;;;6.70;97.00
42001;BME280;27689;48.390;10.856;2023-02-23T03:17:01;95731.81;;;6.65;97.47
42001;BME280;27689;48.390;10.856;2023-02-23T03:20:17;95734.78;;;6.60;97.71
42001;BME280;27689;48.390;10.856;2023-02-23T03:23:30;95736.19;;;6.64;97.48
42001;BME280;27689;48.390;10.856;2023-02-23T03:26:39;95732.22;;;6.70;97.95
42001;BME280;27689;48.390;10.856;2023-02-23T03:29:59;95740.59;;;6.73;97.59
42001;BME280;27689;48.390;10.856;2023-02-23T03:33:11;95736.34;;;6.72;97.83
42001;BME280;27689;48.390;10.856;2023-02-23T03:36:22;95738.81;;;6.74;97.60
42001;BME280;27689;48.390;10.856;2023-02-23T03:39:36;95733.03;;;6.70;98.41
42001;BME280;27689;48.390;10.856;2023-02-23T03:42:42;95734.94;;;6.68;99.25
42001;BME280;27689;48.390;10.856;2023-02-23T03:45:47;95741.41;;;6.74;98.29
42001;BME280;27689;48.390;10.856;2023-02-23T03:48:51;95745.53;;;6.77;97.72
42001;BME280;27689;48.390;10.856;2023-02-23T03:51:58;95743.63;;;6.79;97.63
42001;BME280;27689;48.390;10.856;2023-02-23T03:55:08;95743.38;;;6.82;97.68
42001;BME280;27689;48.390;10.856;2023-02-23T03:58:16;95744.44;;;6.79;97.65
42001;BME280;27689;48.390;10.856;2023-02-23T04:01:20;95741.97;;;6.78;97.93
42001;BME280;27689;48.390;10.856;2023-02-23T04:04:24;95748.41;;;6.83;98.31
42001;BME280;27689;48.390;10.856;2023-02-23T04:07:30;95751.72;;;6.85;98.64
42001;BME280;27689;48.390;10.856;2023-02-23T04:10:34;95758.69;;;6.85;100.00
42001;BME280;27689;48.390;10.856;2023-02-23T04:13:43;95748.72;;;6.90;98.89
42001;BME280;27689;48.390;10.856;2023-02-23T04:16:29;95745.97;;;6.91;98.55
42001;BME280;27689;48.390;10.856;2023-02-23T04:19:14;95747.75;;;6.91;97.28
42001;BME280;27689;48.390;10.856;2023-02-23T04:21:58;95749.41;;;6.92;97.71
42001;BME280;27689;48.390;10.856;2023-02-23T04:24:42;95734.63;;;6.92;98.93
42001;BME280;27689;48.390;10.856;2023-02-23T04:27:26;95732.56;;;6.96;98.94
42001;BME280;27689;48.390;10.856;2023-02-23T04:30:10;95739.44;;;6.97;98.87
42001;BME280;27689;48.390;10.856;2023-02-23T04:32:55;95745.47;;;6.97;98.64
42001;BME280;27689;48.390;10.856;2023-02-23T04:35:39;95746.53;;;6.95;98.11
42001;BME280;27689;48.390;10.856;2023-02-23T04:38:23;95745.03;;;6.92;98.23
42001;BME280;27689;48.390;10.856;2023-02-23T04:41:08;95747.06;;;6.89;98.66
42001;BME280;27689;48.390;10.856;2023-02-23T04:43:52;95752.97;;;6.91;98.69
42001;BME280;27689;48.390;10.856;2023-02-23T04:46:36;95747.88;;;6.89;99.52
42001;BME280;27689;48.390;10.856;2023-02-23T04:49:20;95755.56;;;6.91;99.87
42001;BME280;27689;48.390;10.856;2023-02-23T04:52:04;95754.88;;;6.89;100.00
42001;BME280;27689;48.390;10.856;2023-02-23T04:54:47;95744.72;;;6.86;100.00
42001;BME280;27689;48.390;10.856;2023-02-23T04:57:32;95752.72;;;6.94;100.00
42001;BME280;27689;48.390;10.856;2023-02-23T05:00:17;95749.09;;;6.85;100.00
42001;BME280;27689;48.390;10.856;2023-02-23T05:03:01;95749.81;;;6.87;100.00
42001;BME280;27689;48.390;10.856;2023-02-23T05:05:45;95746.50;;;6.85;100.00
42001;BME280;27689;48.390;10.856;2023-02-23T05:08:29;95752.41;;;6.87;100.00
42001;BME280;27689;48.390;10.856;2023-02-23T05:11:13;95747.88;;;6.89;100.00
42001;BME280;27689;48.390;10.856;2023-02-23T05:13:57;95745.41;;;6.88;100.00
42001;BME280;27689;48.390;10.856;2023-02-23T05:16:41;95748.03;;;6.88;100.00
42001;BME280;27689;48.390;10.856;2023-02-23T05:19:26;95746.25;;;6.88;100.00
42001;BME280;27689;48.390;10.856;2023-02-23T05:22:10;95741.84;;;6.89;100.00
42001;BME280;27689;48.390;10.856;2023-02-23T05:24:55;95744.31;;;6.81;100.00
42001;BME280;27689;48.390;10.856;2023-02-23T05:27:39;95741.28;;;6.76;100.00
42001;BME280;27689;48.390;10.856;2023-02-23T05:30:23;95744.31;;;6.81;100.00
42001;BME280;27689;48.390;10.856;2023-02-23T05:33:07;95744.97;;;6.83;100.00
42001;BME280;27689;48.390;10.856;2023-02-23T05:35:51;95747.06;;;6.89;100.00
42001;BME280;27689;48.390;10.856;2023-02-23T05:38:35;95742.00;;;6.87;100.00
42001;BME280;27689;48.390;10.856;2023-02-23T05:41:21;95744.47;;;6.89;100.00
42001;BME280;27689;48.390;10.856;2023-02-23T05:44:06;95743.06;;;6.85;100.00
42001;BME280;27689;48.390;10.856;2023-02-23T05:46:50;95748.31;;;6.94;100.00
42001;BME280;27689;48.390;10.856;2023-02-23T05:49:34;95757.38;;;7.00;100.00
42001;BME280;27689;48.390;10.856;2023-02-23T05:52:18;95745.84;;;7.02;100.00
42001;BME280;27689;48.390;10.856;2023-02-23T05:55:02;95743.13;;;7.04;100.00
42001;BME280;27689;48.390;10.856;2023-02-23T05:57:46;95753.97;;;7.09;100.00
42001;BME280;27689;48.390;10.856;2023-02-23T06:00:30;95755.19;;;7.15;100.00
42001;BME280;27689;48.390;10.856;2023-02-23T06:03:14;95756.31;;;7.12;100.00
42001;BME280;27689;48.390;10.856;2023-02-23T06:05:58;95759.31;;;7.17;100.00
42001;BME280;27689;48.390;10.856;2023-02-23T06:08:42;95758.50;;;7.17;100.00
42001;BME280;27689;48.390;10.856;2023-02-23T06:11:27;95765.34;;;7.18;100.00
42001;BME280;27689;48.390;10.856;2023-02-23T06:14:11;95762.88;;;7.16;100.00
42001;BME280;27689;48.390;10.856;2023-02-23T06:16:54;95761.94;;;7.17;100.00
42001;BME280;27689;48.390;10.856;2023-02-23T06:19:38;95764.41;;;7.19;100.00
42001;BME280;27689;48.390;10.856;2023-02-23T06:22:22;95767.41;;;7.14;100.00
42001;BME280;27689;48.390;10.856;2023-02-23T06:25:07;95765.75;;;7.13;100.00
42001;BME280;27689;48.390;10.856;2023-02-23T06:27:55;95767.41;;;7.14;100.00
42001;BME280;27689;48.390;10.856;2023-02-23T06:30:40;95771.66;;;7.15;100.00
42001;BME280;27689;48.390;10.856;2023-02-23T06:33:24;95767.28;;;7.16;100.00
42001;BME280;27689;48.390;10.856;2023-02-23T06:36:08;95774.25;;;7.15;100.00
42001;BME280;27689;48.390;10.856;2023-02-23T06:38:57;95774.00;;;7.18;100.00
42001;BME280;27689;48.390;10.856;2023-02-23T06:41:41;95784.97;;;7.22;100.00
42001;BME280;27689;48.390;10.856;2023-02-23T06:44:25;95782.25;;;7.23;100.00
42001;BME280;27689;48.390;10.856;2023-02-23T06:47:09;95791.28;;;7.29;100.00
42001;BME280;27689;48.390;10.856;2023-02-23T06:49:53;95791.97;;;7.31;100.00
42001;BME280;27689;48.390;10.856;2023-02-23T06:52:37;95791.84;;;7.32;100.00
42001;BME280;27689;48.390;10.856;2023-02-23T06:55:22;95790.88;;;7.33;100.00
42001;BME280;27689;48.390;10.856;2023-02-23T06:58:06;95790.63;;;7.36;100.00
42001;BME280;27689;48.390;10.856;2023-02-23T07:00:50;95799.53;;;7.43;100.00
42001;BME280;27689;48.390;10.856;2023-02-23T07:03:36;95798.44;;;7.46;100.00
42001;BME280;27689;48.390;10.856;2023-02-23T07:06:20;95798.75;;;7.53;100.00
42001;BME280;27689;48.390;10.856;2023-02-23T07:09:04;95811.22;;;7.59;100.00
42001;BME280;27689;48.390;10.856;2023-02-23T07:11:48;95807.66;;;7.60;100.00
42001;BME280;27689;48.390;10.856;2023-02-23T07:14:32;95808.22;;;7.63;100.00
42001;BME280;27689;48.390;10.856;2023-02-23T07:17:16;95805.34;;;7.66;100.00
42001;BME280;27689;48.390;10.856;2023-02-23T07:20:01;95813.72;;;7.70;100.00
42001;BME280;27689;48.390;10.856;2023-02-23T07:22:45;95810.69;;;7.74;100.00
42001;BME280;27689;48.390;10.856;2023-02-23T07:25:29;95809.44;;;7.78;100.00
42001;BME280;27689;48.390;10.856;2023-02-23T07:28:13;95811.53;;;7.85;100.00
42001;BME280;27689;48.390;10.856;2023-02-23T07:30:58;95807.97;;;7.86;100.00
42001;BME280;27689;48.390;10.856;2023-02-23T07:33:42;95809.31;;;7.90;100.00
42001;BME280;27689;48.390;10.856;2023-02-23T07:36:26;95813.28;;;7.94;100.00
42001;BME280;27689;48.390;10.856;2023-02-23T07:39:10;95810.41;;;7.97;100.00
42001;BME280;27689;48.390;10.856;2023-02-23T07:41:54;95809.97;;;8.01;100.00
42001;BME280;27689;48.390;10.856;2023-02-23T07:44:38;95820.00;;;8.06;100.00
42001;BME280;27689;48.390;10.856;2023-02-23T07:47:22;95821.25;;;8.11;100.00
42001;BME280;27689;48.390;10.856;2023-02-23T07:50:13;95822.19;;;8.20;100.00
42001;BME280;27689;48.390;10.856;2023-02-23T07:52:57;95816.56;;;8.25;100.00
42001;BME280;27689;48.390;10.856;2023-02-23T07:55:42;95817.94;;;8.29;100.00
42001;BME280;27689;48.390;10.856;2023-02-23T07:58:26;95819.41;;;8.31;100.00
42001;BME280;27689;48.390;10.856;2023-02-23T08:01:11;95820.97;;;8.34;100.00
42001;BME280;27689;48.390;10.856;2023-02-23T08:03:56;95818.91;;;8.37;100.00
42001;BME280;27689;48.390;10.856;2023-02-23T08:06:40;95825.63;;;8.40;100.00
42001;BME280;27689;48.390;10.856;2023-02-23T08:09:24;95818.22;;;8.45;100.00
42001;BME280;27689;48.390;10.856;2023-02-23T08:12:08;95828.22;;;8.49;100.00
42001;BME280;27689;48.390;10.856;2023-02-23T08:14:53;95823.53;;;8.53;100.00
42001;BME280;27689;48.390;10.856;2023-02-23T08:17:38;95828.22;;;8.59;100.00
42001;BME280;27689;48.390;10.856;2023-02-23T08:20:22;95818.03;;;8.56;100.00
42001;BME280;27689;48.390;10.856;2023-02-23T08:23:06;95819.41;;;8.60;100.00
42001;BME280;27689;48.390;10.856;2023-02-23T08:25:50;95820.75;;;8.64;100.00
42001;BME280;27689;48.390;10.856;2023-02-23T08:28:34;95823.09;;;8.67;100.00
42001;BME280;27689;48.390;10.856;2023-02-23T08:31:18;95819.09;;;8.63;100.00
42001;BME280;27689;48.390;10.856;2023-02-23T08:34:04;95820.19;;;8.70;100.00
42001;BME280;27689;48.390;10.856;2023-02-23T08:36:48;95821.84;;;8.71;100.00
42001;BME280;27689;48.390;10.856;2023-02-23T08:39:32;95822.41;;;8.65;100.00
42001;BME280;27689;48.390;10.856;2023-02-23T08:42:16;95817.19;;;8.65;100.00
42001;BME280;27689;48.390;10.856;2023-02-23T08:45:00;95821.84;;;8.71;100.00
42001;BME280;27689;48.390;10.856;2023-02-23T08:47:44;95830.66;;;8.61;100.00
42001;BME280;27689;48.390;10.856;2023-02-23T08:50:28;95833.25;;;8.70;100.00
42001;BME280;27689;48.390;10.856;2023-02-23T08:53:12;95821.56;;;8.74;100.00
42001;BME280;27689;48.390;10.856;2023-02-23T08:55:58;95828.81;;;8.80;100.00
42001;BME280;27689;48.390;10.856;2023-02-23T08:58:43;95832.53;;;8.78;100.00
42001;BME280;27689;48.390;10.856;2023-02-23T09:01:27;95827.06;;;8.71;100.00
42001;BME280;27689;48.390;10.856;2023-02-23T09:04:11;95833.34;;;8.78;100.00
42001;BME280;27689;48.390;10.856;2023-02-23T09:06:56;95828.53;;;8.83;100.00
42001;BME280;27689;48.390;10.856;2023-02-23T09:09:40;95828.81;;;8.90;100.00
42001;BME280;27689;48.390;10.856;2023-02-23T09:12:24;95824.50;;;8.99;100.00
42001;BME280;27689;48.390;10.856;2023-02-23T09:15:08;95818.03;;;8.93;100.00
42001;BME280;27689;48.390;10.856;2023-02-23T09:17:52;95835.84;;;9.07;100.00
42001;BME280;27689;48.390;10.856;2023-02-23T09:20:39;95828.94;;;9.16;100.00
42001;BME280;27689;48.390;10.856;2023-02-23T09:23:27;95828.75;;;9.27;100.00
42001;BME280;27689;48.390;10.856;2023-02-23T09:26:12;95826.03;;;9.46;100.00
42001;BME280;27689;48.390;10.856;2023-02-23T09:28:57;95823.28;;;9.66;100.00
42001;BME280;27689;48.390;10.856;2023-02-23T09:31:41;95829.13;;;9.77;100.00
42001;BME280;27689;48.390;10.856;2023-02-23T09:34:26;95828.47;;;9.75;100.00
42001;BME280;27689;48.390;10.856;2023-02-23T09:37:13;95835.25;;;9.86;100.00
42001;BME280;27689;48.390;10.856;2023-02-23T09:39:58;95841.56;;;9.93;100.00
42001;BME280;27689;48.390;10.856;2023-02-23T09:42:49;95836.31;;;9.93;100.00
42001;BME280;27689;48.390;10.856;2023-02-23T09:45:41;95845.03;;;9.84;100.00
42001;BME280;27689;48.390;10.856;2023-02-23T09:48:27;95842.53;;;9.92;100.00
42001;BME280;27689;48.390;10.856;2023-02-23T09:51:16;95840.50;;;9.86;100.00
42001;BME280;27689;48.390;10.856;2023-02-23T09:54:02;95849.59;;;9.82;100.00
42001;BME280;27689;48.390;10.856;2023-02-23T09:56:48;95845.47;;;9.79;100.00
42001;BME280;27689;48.390;10.856;2023-02-23T09:59:33;95840.94;;;9.81;100.00
42001;BME280;27689;48.390;10.856;2023-02-23T10:02:36;95842.97;;;9.87;100.00
42001;BME280;27689;48.390;10.856;2023-02-23T10:05:22;95841.69;;;9.92;100.00
42001;BME280;27689;48.390;10.856;2023-02-23T10:08:27;95840.41;;;9.96;100.00
42001;BME280;27689;48.390;10.856;2023-02-23T10:11:23;95838.56;;;9.88;100.00
42001;BME280;27689;48.390;10.856;2023-02-23T10:14:29;95841.56;;;9.93;100.00
42001;BME280;27689;48.390;10.856;2023-02-23T10:20:36;95844.31;;;9.92;100.00
42001;BME280;27689;48.390;10.856;2023-02-23T10:23:27;95845.50;;;9.97;100.00
42001;BME280;27689;48.390;10.856;2023-02-23T10:26:17;95838.69;;;9.86;100.00
42001;BME280;27689;48.390;10.856;2023-02-23T10:35:28;95849.75;;;9.98;100.00
42001;BME280;27689;48.390;10.856;2023-02-23T10:38:17;95842.34;;;10.11;100.00
42001;BME280;27689;48.390;10.856;2023-02-23T10:41:01;95840.06;;;10.08;100.00
42001;BME280;27689;48.390;10.856;2023-02-23T10:43:46;95847.00;;;10.17;100.00
42001;BME280;27689;48.390;10.856;2023-02-23T10:46:37;95842.59;;;10.18;100.00
42001;BME280;27689;48.390;10.856;2023-02-23T10:49:28;95848.72;;;10.27;100.00
42001;BME280;27689;48.390;10.856;2023-02-23T10:52:21;95839.13;;;10.17;100.00
42001;BME280;27689;48.390;10.856;2023-02-23T10:55:25;95846.47;;;10.32;100.00
42001;BME280;27689;48.390;10.856;2023-02-23T10:58:18;95841.97;;;10.42;100.00
42001;BME280;27689;48.390;10.856;2023-02-23T11:01:04;95834.25;;;10.40;100.00
42001;BME280;27689;48.390;10.856;2023-02-23T11:03:49;95838.88;;;10.38;100.00
42001;BME280;27689;48.390;10.856;2023-02-23T11:06:35;95824.47;;;10.42;100.00
42001;BME280;27689;48.390;10.856;2023-02-23T11:09:23;95833.28;;;10.41;100.00
42001;BME280;27689;48.390;10.856;2023-02-23T11:15:24;95820.00;;;10.60;100.00
42001;BME280;27689;48.390;10.856;2023-02-23T11:18:21;95816.00;;;10.74;100.00
42001;BME280;27689;48.390;10.856;2023-02-23T11:21:10;95820.00;;;10.86;99.66
42001;BME280;27689;48.390;10.856;2023-02-23T11:23:57;95815.28;;;10.90;99.81
42001;BME280;27689;48.390;10.856;2023-02-23T11:26:45;95808.34;;;10.81;100.00
42001;BME280;27689;48.390;10.856;2023-02-23T11:29:33;95808.53;;;10.87;100.00
42001;BME280;27689;48.390;10.856;2023-02-23T11:32:26;95808.66;;;11.12;99.72
42001;BME280;27689;48.390;10.856;2023-02-23T11:35:24;95800.72;;;11.38;97.87
42001;BME280;27689;48.390;10.856;2023-02-23T11:38:19;95794.56;;;11.55;93.28
42001;BME280;27689;48.390;10.856;2023-02-23T11:41:16;95786.84;;;11.53;92.66
42001;BME280;27689;48.390;10.856;2023-02-23T11:44:00;95783.03;;;11.40;93.78
42001;BME280;27689;48.390;10.856;2023-02-23T11:46:45;95781.03;;;11.34;95.01
42001;BME280;27689;48.390;10.856;2023-02-23T11:49:31;95782.88;;;11.41;93.36
42001;BME280;27689;48.390;10.856;2023-02-23T11:52:20;95781.84;;;11.34;94.87
42001;BME280;27689;48.390;10.856;2023-02-23T11:55:06;95772.38;;;11.49;93.08
42001;BME280;27689;48.390;10.856;2023-02-23T11:57:51;95776.66;;;11.42;93.44
42001;BME280;27689;48.390;10.856;2023-02-23T12:00:36;95776.09;;;11.30;93.75
42001;BME280;27689;48.390;10.856;2023-02-23T12:03:21;95768.75;;;11.26;94.61
42001;BME280;27689;48.390;10.856;2023-02-23T12:06:06;95767.97;;;11.42;92.96
42001;BME280;27689;48.390;10.856;2023-02-23T12:08:51;95770.78;;;11.56;91.53
42001;BME280;27689;48.390;10.856;2023-02-23T12:11:40;95768.97;;;11.65;91.26
42001;BME280;27689;48.390;10.856;2023-02-23T12:14:59;95764.88;;;11.54;92.14
42001;BME280;27689;48.390;10.856;2023-02-23T12:17:51;95766.16;;;11.58;91.95
42001;BME280;27689;48.390;10.856;2023-02-23T12:20:39;95756.00;;;11.63;90.88
42001;BME280;27689;48.390;10.856;2023-02-23T12:23:28;95761.25;;;11.63;90.70
42001;BME280;27689;48.390;10.856;2023-02-23T12:26:17;95754.06;;;11.74;90.46
42001;BME280;27689;48.390;10.856;2023-02-23T12:29:29;95749.50;;;11.92;88.85
42001;BME280;27689;48.390;10.856;2023-02-23T12:32:18;95746.22;;;12.14;89.22
42001;BME280;27689;48.390;10.856;2023-02-23T12:35:13;95745.22;;;12.23;88.29
42001;BME280;27689;48.390;10.856;2023-02-23T12:38:17;95739.66;;;12.10;88.16
42001;BME280;27689;48.390;10.856;2023-02-23T12:41:12;95746.41;;;12.13;87.40
42001;BME280;27689;48.390;10.856;2023-02-23T12:44:01;95739.81;;;12.25;86.12
42001;BME280;27689;48.390;10.856;2023-02-23T12:46:49;95739.19;;;11.98;88.48
42001;BME280;27689;48.390;10.856;2023-02-23T12:49:50;95744.09;;;11.93;88.38
42001;BME280;27689;48.390;10.856;2023-02-23T12:53:10;95738.34;;;11.90;89.32
42001;BME280;27689;48.390;10.856;2023-02-23T13:01:58;95741.28;;;12.03;88.80
42001;BME280;27689;48.390;10.856;2023-02-23T13:05:15;95732.78;;;12.01;88.35
42001;BME280;27689;48.390;10.856;2023-02-23T13:08:21;95730.63;;;12.05;88.91
42001;BME280;27689;48.390;10.856;2023-02-23T13:12:09;95732.44;;;12.20;86.56
42001;BME280;27689;48.390;10.856;2023-02-23T13:14:34;95731.13;;;12.24;85.34
42001;BME280;27689;48.390;10.856;2023-02-23T13:17:30;95726.19;;;12.21;86.99
42001;BME280;27689;48.390;10.856;2023-02-23T13:20:32;95727.19;;;12.28;86.53
42001;BME280;27689;48.390;10.856;2023-02-23T13:24:15;95727.50;;;12.17;86.68
42001;BME280;27689;48.390;10.856;2023-02-23T13:27:02;95727.00;;;12.22;86.77
42001;BME280;27689;48.390;10.856;2023-02-23T13:29:50;95729.31;;;12.25;87.13
42001;BME280;27689;48.390;10.856;2023-02-23T13:32:38;95723.88;;;12.34;85.82
42001;BME280;27689;48.390;10.856;2023-02-23T13:35:22;95718.16;;;12.31;85.43
42001;BME280;27689;48.390;10.856;2023-02-23T13:41:40;95723.41;;;12.31;83.33
42001;BME280;27689;48.390;10.856;2023-02-23T13:44:34;95716.66;;;12.20;85.25
42001;BME280;27689;48.390;10.856;2023-02-23T13:53:31;95718.16;;;12.07;85.46
42001;BME280;27689;48.390;10.856;2023-02-23T13:56:20;95724.22;;;12.31;84.13
42001;BME280;27689;48.390;10.856;2023-02-23T13:59:14;95720.09;;;12.37;83.76
42001;BME280;27689;48.390;10.856;2023-02-23T14:02:01;95723.69;;;12.36;83.15
42001;BME280;27689;48.390;10.856;2023-02-23T14:04:49;95710.91;;;12.33;84.09
42001;BME280;27689;48.390;10.856;2023-02-23T14:07:38;95714.00;;;12.36;85.09
42001;BME280;27689;48.390;10.856;2023-02-23T14:10:27;95716.66;;;12.45;83.92
42001;BME280;27689;48.390;10.856;2023-02-23T14:16:15;95717.13;;;12.40;82.94
42001;BME280;27689;48.390;10.856;2023-02-23T14:19:04;95712.53;;;12.42;83.79
42001;BME280;27689;48.390;10.856;2023-02-23T14:21:50;95713.84;;;12.46;84.31
42001;BME280;27689;48.390;10.856;2023-02-23T14:24:43;95708.22;;;12.57;85.08
42001;BME280;27689;48.390;10.856;2023-02-23T14:27:42;95717.38;;;12.69;84.54
42001;BME280;27689;48.390;10.856;2023-02-23T14:30:42;95702.38;;;12.78;84.76
42001;BME280;27689;48.390;10.856;2023-02-23T14:36:33;95703.69;;;12.82;83.18
42001;BME280;27689;48.390;10.856;2023-02-23T14:39:23;95699.59;;;12.80;82.53
42001;BME280;27689;48.390;10.856;2023-02-23T14:42:08;95702.44;;;12.70;80.70
42001;BME280;27689;48.390;10.856;2023-02-23T14:45:15;95704.41;;;12.68;80.90
42001;BME280;27689;48.390;10.856;2023-02-23T14:48:04;95703.09;;;12.64;81.13
42001;BME280;27689;48.390;10.856;2023-02-23T14:50:50;95706.56;;;12.64;80.97
42001;BME280;27689;48.390;10.856;2023-02-23T14:53:34;95691.94;;;12.62;79.98
42001;BME280;27689;48.390;10.856;2023-02-23T14:56:22;95699.34;;;12.58;80.39
42001;BME280;27689;48.390;10.856;2023-02-23T14:59:07;95691.47;;;12.50;79.15
42001;BME280;27689;48.390;10.856;2023-02-23T15:01:52;95695.63;;;12.36;79.94
42001;BME280;27689;48.390;10.856;2023-02-23T15:04:36;95690.06;;;12.23;79.81
42001;BME280;27689;48.390;10.856;2023-02-23T15:07:29;95695.97;;;12.17;80.07
42001;BME280;27689;48.390;10.856;2023-02-23T15:10:21;95687.47;;;12.07;80.88
42001;BME280;27689;48.390;10.856;2023-02-23T15:13:17;95689.97;;;12.00;81.91
42001;BME280;27689;48.390;10.856;2023-02-23T15:16:20;95689.78;;;12.02;81.61
42001;BME280;27689;48.390;10.856;2023-02-23T15:19:30;95685.53;;;12.01;82.03
42001;BME280;27689;48.390;10.856;2023-02-23T15:22:25;95692.75;;;11.99;82.05
42001;BME280;27689;48.390;10.856;2023-02-23T15:25:20;95686.69;;;11.98;82.37
42001;BME280;27689;48.390;10.856;2023-02-23T15:28:19;95695.88;;;11.94;82.22
42001;BME280;27689;48.390;10.856;2023-02-23T15:31:08;95693.72;;;11.90;82.62
42001;BME280;27689;48.390;10.856;2023-02-23T15:33:55;95697.69;;;11.86;82.65
42001;BME280;27689;48.390;10.856;2023-02-23T15:36:40;95692.75;;;11.83;83.02
42001;BME280;27689;48.390;10.856;2023-02-23T15:39:33;95698.34;;;11.80;83.03
42001;BME280;27689;48.390;10.856;2023-02-23T15:42:28;95701.91;;;11.71;83.61
42001;BME280;27689;48.390;10.856;2023-02-23T15:48:17;95707.16;;;11.71;83.87